x

Western Gulf Of Alaska - 175nm Se Of Kodiak, Ak (46001) Wave Buoy

10:50am - Sat 27th Aug 2016 All times are AKDT. -8 hours from GMT.

  • Sig Wave height 4.9ft
  • Peak Period 8s
  • Average Period 5s
  • Wind
    16mph, 18mph gusts
  • Sea Temp 59°f
  • Air Temp 59°f
  • Sea Pressure 1015mb
  • Western Gulf Of Alaska  - 175nm Se Of Kodiak, Ak
  • Western Gulf Of Alaska  - 175nm Se Of Kodiak, Ak

More Historic Weather Station data

Upgrade to MSW Pro to gain access to the past 30 days of data for over 8000 Wavebouys and Weather Stations around the globe.

Join Pro

Comparision Forecast

View Surf forecast
   
Sat 08/27 10:50am 5ft 8s 5s 16 18 mph 1015mb 59f 59f
9:50am 5ft 8s 5s 18 22 mph 1015mb 59f 59f
8:50am 4.5ft 7s 5s 18 22 mph 1015.3mb 59f 59f
7:50am 4ft 7s 5s 16 18 mph 1015.6mb 59f 59f
6:50am 4ft 7s 5s 13 18 mph 1016mb 59f 59f
5:50am 4.5ft 7s 5s 11 13 mph 1016.2mb 59f 59f
4:50am 4.5ft 7s 5s 16 18 mph 1016.5mb 59f 59f
3:50am 4.5ft 7s 5s 9 13 mph 1016.8mb 59f 59f
2:50am 4.5ft 8s 5s 9 11 mph 1017mb 59f 59f
1:50am 4.5ft 8s 5s 11 13 mph 1016.8mb 59f 58f
12:50am 3.5ft 8s 5s 20 22 mph 1016.5mb 59f 56f
Fri 08/26 11:50pm 4ft 7s 6s 7 9 mph 1016.6mb 59f 58f
10:50pm 4ft 7s 6s 2 4 mph 1016.7mb 59f 58f
9:50pm 4ft 8s 6s 4
mph
1017.3mb 59f 58f
8:50pm 4.5ft 7s 6s 7
mph
1017.9mb 59f 58f
7:50pm 4.5ft 7s 5s 7 9 mph 1018.4mb 59f 58f
6:50pm 4.5ft 8s 6s 7
mph
1019.4mb 59f 58f
5:50pm 5ft 7s 6s 7
mph
1020.2mb 59f 58f
4:50pm 5ft 7s 6s 9 11 mph 1021.1mb 59f 58f
3:50pm 5ft 7s 6s 7 9 mph 1021.9mb 59f 59f
2:50pm 5ft 7s 6s 9 11 mph 1022.7mb 59f 58f
1:50pm 5ft 8s 6s 11 13 mph 1023.4mb 59f 58f
12:50pm 4.5ft 7s 6s 9 11 mph 1023.6mb 59f 59f
11:50am 5ft 8s 6s 7 9 mph 1023.8mb 59f 58f
10:50am 5ft 8s 6s 7 9 mph 1023.9mb 59f 58f
9:50am 4.5ft 7s 6s 9 11 mph 1024.1mb 59f 58f
8:50am 5ft 7s 6s 9 11 mph 1024.2mb 59f 58f
7:50am 5ft 7s 5s 9 11 mph 1024.5mb 59f 58f
6:50am 6ft 7s 6s 9 11 mph 1024.6mb 59f 58f
5:50am 6ft 7s 5s 9 11 mph 1025mb 59f 58f
4:50am 6.5ft 7s 5s 11
mph
1025.3mb 59f 58f
3:50am 7ft 7s 6s 11 13 mph 1025.4mb 59f 58f
2:50am 7ft 7s 6s 11 13 mph 1025.6mb 59f 59f
1:50am 6.5ft 7s 5s 13 18 mph 1025.6mb 59f 58f
12:50am 6.5ft 7s 5s 18 22 mph 1025.7mb 59f 59f
Thu 08/25 11:50pm 6.5ft 7s 5s 18 22 mph 1025.6mb 59f 59f
10:50pm 6.5ft 7s 5s 20 25 mph 1025.5mb 59f 59f
9:50pm 6.5ft 8s 5s 22 27 mph 1025.6mb 59f 59f
8:50pm 7ft 7s 5s 22 27 mph 1025.5mb 59f 59f
7:50pm 7ft 6s 5s 22 27 mph 1025.6mb 59f 59f
6:50pm 7ft 6s 5s 25 29 mph 1025.9mb 59f 59f
5:50pm 7ft 7s 5s 25 34 mph 1026mb 59f 60f
4:50pm 7ft 7s 5s 25 27 mph 1026.4mb 59f 60f
3:50pm 7ft 7s 5s 25 29 mph 1026.9mb 59f 59f
2:50pm 6.5ft 7s 5s 22 27 mph 1027.4mb 59f 60f
1:50pm 6ft 7s 5s 20 25 mph 1027.9mb 59f 59f
12:50pm 5.5ft 8s 5s 20 25 mph 1028.3mb 59f 59f
11:50am 5ft 7s 5s 18 22 mph 1028.8mb 59f 59f
10:50am 5ft 7s 5s 18 22 mph 1029.1mb 59f 58f
9:50am 5.5ft 7s 5s 16 18 mph 1029.3mb 59f 58f
8:50am 5.5ft 8s 5s 18 22 mph 1029.5mb 59f 59f
7:50am 5.5ft 8s 5s 18 20 mph 1029.5mb 59f 59f
6:50am 6.5ft 8s 5s 18 20 mph 1029.6mb 59f 59f
5:50am 7ft 8s 5s 18 20 mph 1029.5mb 59f 59f
4:50am 7ft 8s 5s 18 22 mph 1029.9mb 59f 59f
3:50am 7ft 8s 5s 20 22 mph 1030.1mb 59f 59f
2:50am 8ft 8s 5s 20 25 mph 1030.2mb 59f 59f
1:50am 7ft 7s 5s 20 25 mph 1030.3mb 59f 59f
12:50am 7ft 8s 5s 22 27 mph 1030.3mb 59f 59f
Wed 08/24 11:50pm 7ft 8s 6s 20 25 mph 1030.5mb 59f 59f
10:50pm 6ft 8s 5s 20 25 mph 1030.6mb 59f 59f
9:50pm 6ft 8s 6s 20 22 mph 1030.3mb 59f 59f
8:50pm 6ft 8s 6s 18 22 mph 1030mb 59f 59f
7:50pm 6.5ft 8s 6s 18 22 mph 1029.9mb 59f 59f
6:50pm 7ft 8s 5s 20 22 mph 1029.7mb 59f 59f
5:50pm 6.5ft 8s 5s 18 20 mph 1029.5mb 59f 59f
4:50pm 7ft 8s 5s 18 22 mph 1029.4mb 59f 59f
3:50pm 8ft 8s 6s 18 22 mph 1029.4mb 59f 59f
2:50pm 7.5ft 8s 5s 18 22 mph 1029.1mb 59f 60f
1:50pm 7ft 7s 5s 18 22 mph 1028.8mb 59f 60f
12:50pm 7.5ft 8s 6s 18 20 mph 1028.4mb 59f 60f
11:50am 7ft 8s 6s 18 22 mph 1027.9mb 59f 60f
10:50am 7ft 8s 6s 18 22 mph 1027.4mb 59f 60f
9:50am 7ft 7s 6s 20 25 mph 1026.5mb 59f 60f
8:50am 7ft 8s  -  22 25 mph 1025.5mb 59f 60f
7:50am 7ft 7s 5s 22 27 mph 1024.8mb 59f 60f
6:50am 6.5ft 7s 5s 20 25 mph 1024.2mb 59f 59f
5:50am 7ft 7s 5s 22 27 mph 1023.9mb 59f 60f
4:50am 8ft 7s 5s 22 27 mph 1023.4mb 59f 60f
3:50am 6ft 6s 5s 22 25 mph 1022.9mb 59f 59f
2:50am 7ft 6s 5s 20 22 mph 1022.8mb 59f 59f
1:50am 7ft 6s 5s 20 25 mph 1022.3mb 59f 60f
12:50am 5.5ft 8s 5s 20 25 mph 1021.9mb 59f 60f
Tue 08/23 11:50pm 5.5ft 7s 5s 22 25 mph 1021.4mb 59f 60f
10:50pm 5ft 8s 5s 18 22 mph 1020.8mb 59f 59f
9:50pm 5ft 6s 5s 18 22 mph 1020.4mb 59f 59f
8:50pm 5ft 16s 6s 16 20 mph 1020mb 59f 59f
7:50pm 5ft 7s 5s 13 18 mph 1020.2mb 59f 58f